sensor_id;sensor_type;location;lat;lon;timestamp;pressure;altitude;pressure_sealevel;temperature;humidity
7441;BME280;29616;51.950;8.572;2022-10-16T00:01:41;99608.56;;;13.19;100.00
7441;BME280;29616;51.950;8.572;2022-10-16T00:04:09;99613.91;;;13.13;100.00
7441;BME280;29616;51.950;8.572;2022-10-16T00:06:38;99616.13;;;13.09;100.00
7441;BME280;29616;51.950;8.572;2022-10-16T00:09:06;99605.06;;;12.95;100.00
7441;BME280;29616;51.950;8.572;2022-10-16T00:11:39;99593.91;;;12.96;100.00
7441;BME280;29616;51.950;8.572;2022-10-16T00:14:11;99604.81;;;13.04;100.00
7441;BME280;29616;51.950;8.572;2022-10-16T00:16:40;99596.97;;;13.01;100.00
7441;BME280;29616;51.950;8.572;2022-10-16T00:19:09;99601.78;;;12.99;100.00
7441;BME280;29616;51.950;8.572;2022-10-16T00:21:38;99598.09;;;12.84;100.00
7441;BME280;29616;51.950;8.572;2022-10-16T00:24:09;99611.97;;;12.91;100.00
7441;BME280;29616;51.950;8.572;2022-10-16T00:26:39;99614.53;;;12.84;100.00
7441;BME280;29616;51.950;8.572;2022-10-16T00:29:08;99625.88;;;12.81;100.00
7441;BME280;29616;51.950;8.572;2022-10-16T00:31:37;99614.59;;;12.76;100.00
7441;BME280;29616;51.950;8.572;2022-10-16T00:34:05;99621.25;;;12.82;100.00
7441;BME280;29616;51.950;8.572;2022-10-16T00:36:33;99619.38;;;12.82;100.00
7441;BME280;29616;51.950;8.572;2022-10-16T00:39:02;99612.88;;;12.75;100.00
7441;BME280;29616;51.950;8.572;2022-10-16T00:41:31;99612.34;;;12.80;100.00
7441;BME280;29616;51.950;8.572;2022-10-16T00:44:03;99607.69;;;12.80;100.00
7441;BME280;29616;51.950;8.572;2022-10-16T00:46:39;99601.81;;;12.91;100.00
7441;BME280;29616;51.950;8.572;2022-10-16T00:49:10;99613.84;;;12.90;100.00
7441;BME280;29616;51.950;8.572;2022-10-16T00:51:42;99608.56;;;12.81;100.00
7441;BME280;29616;51.950;8.572;2022-10-16T00:54:15;99611.50;;;12.79;100.00
7441;BME280;29616;51.950;8.572;2022-10-16T00:56:46;99615.09;;;12.80;100.00
7441;BME280;29616;51.950;8.572;2022-10-16T00:59:18;99601.91;;;12.75;100.00
7441;BME280;29616;51.950;8.572;2022-10-16T01:01:47;99608.78;;;12.71;100.00
7441;BME280;29616;51.950;8.572;2022-10-16T01:04:15;99598.25;;;12.52;100.00
7441;BME280;29616;51.950;8.572;2022-10-16T01:06:52;99590.22;;;12.50;100.00
7441;BME280;29616;51.950;8.572;2022-10-16T01:09:26;99611.97;;;12.44;100.00
7441;BME280;29616;51.950;8.572;2022-10-16T01:12:08;99614.59;;;12.29;100.00
7441;BME280;29616;51.950;8.572;2022-10-16T01:14:47;99619.56;;;12.26;100.00
7441;BME280;29616;51.950;8.572;2022-10-16T01:17:20;99627.44;;;12.21;100.00
7441;BME280;29616;51.950;8.572;2022-10-16T01:20:03;99614.13;;;12.09;100.00
7441;BME280;29616;51.950;8.572;2022-10-16T01:22:44;99627.63;;;12.11;100.00
7441;BME280;29616;51.950;8.572;2022-10-16T01:25:25;99635.16;;;12.09;100.00
7441;BME280;29616;51.950;8.572;2022-10-16T01:27:57;99625.06;;;12.09;100.00
7441;BME280;29616;51.950;8.572;2022-10-16T01:30:27;99630.38;;;12.03;100.00
7441;BME280;29616;51.950;8.572;2022-10-16T01:33:02;99608.88;;;11.76;100.00
7441;BME280;29616;51.950;8.572;2022-10-16T01:35:37;99611.09;;;11.72;100.00
7441;BME280;29616;51.950;8.572;2022-10-16T01:38:11;99640.34;;;11.80;100.00
7441;BME280;29616;51.950;8.572;2022-10-16T01:40:46;99652.47;;;11.69;100.00
7441;BME280;29616;51.950;8.572;2022-10-16T01:43:20;99652.81;;;11.74;100.00
7441;BME280;29616;51.950;8.572;2022-10-16T01:45:51;99646.50;;;11.82;100.00
7441;BME280;29616;51.950;8.572;2022-10-16T01:48:21;99652.81;;;11.74;100.00
7441;BME280;29616;51.950;8.572;2022-10-16T01:50:56;99658.63;;;11.87;100.00
7441;BME280;29616;51.950;8.572;2022-10-16T01:53:27;99658.63;;;11.87;100.00
7441;BME280;29616;51.950;8.572;2022-10-16T01:55:59;99658.16;;;11.84;100.00
7441;BME280;29616;51.950;8.572;2022-10-16T01:58:30;99657.81;;;11.71;100.00
7441;BME280;29616;51.950;8.572;2022-10-16T02:01:03;99637.56;;;11.55;100.00
7441;BME280;29616;51.950;8.572;2022-10-16T02:03:34;99649.38;;;11.64;100.00
7441;BME280;29616;51.950;8.572;2022-10-16T02:06:04;99632.06;;;11.47;100.00
7441;BME280;29616;51.950;8.572;2022-10-16T02:08:33;99649.69;;;11.53;100.00
7441;BME280;29616;51.950;8.572;2022-10-16T02:11:02;99660.97;;;11.50;100.00
7441;BME280;29616;51.950;8.572;2022-10-16T02:13:36;99647.47;;;11.48;100.00
7441;BME280;29616;51.950;8.572;2022-10-16T02:16:08;99635.13;;;11.36;100.00
7441;BME280;29616;51.950;8.572;2022-10-16T02:18:37;99648.00;;;11.36;100.00
7441;BME280;29616;51.950;8.572;2022-10-16T02:21:13;99649.00;;;11.27;100.00
7441;BME280;29616;51.950;8.572;2022-10-16T02:23:49;99653.09;;;11.23;100.00
7441;BME280;29616;51.950;8.572;2022-10-16T02:26:27;99636.47;;;11.08;100.00
7441;BME280;29616;51.950;8.572;2022-10-16T02:29:02;99645.53;;;11.09;100.00
7441;BME280;29616;51.950;8.572;2022-10-16T02:31:35;99639.53;;;11.05;100.00
7441;BME280;29616;51.950;8.572;2022-10-16T02:34:06;99643.81;;;11.08;100.00
7441;BME280;29616;51.950;8.572;2022-10-16T02:36:35;99641.41;;;11.05;100.00
7441;BME280;29616;51.950;8.572;2022-10-16T02:39:04;99640.72;;;11.03;100.00
7441;BME280;29616;51.950;8.572;2022-10-16T02:41:33;99645.00;;;11.05;100.00
7441;BME280;29616;51.950;8.572;2022-10-16T02:44:04;99647.25;;;11.10;100.00
7441;BME280;29616;51.950;8.572;2022-10-16T02:46:32;99633.72;;;11.00;100.00
7441;BME280;29616;51.950;8.572;2022-10-16T02:49:00;99646.06;;;11.12;100.00
7441;BME280;29616;51.950;8.572;2022-10-16T02:51:28;99643.50;;;11.19;100.00
7441;BME280;29616;51.950;8.572;2022-10-16T02:53:57;99647.13;;;11.27;100.00
7441;BME280;29616;51.950;8.572;2022-10-16T02:56:25;99652.06;;;11.32;100.00
7441;BME280;29616;51.950;8.572;2022-10-16T02:58:53;99651.06;;;11.41;100.00
7441;BME280;29616;51.950;8.572;2022-10-16T03:01:23;99644.22;;;11.53;100.00
7441;BME280;29616;51.950;8.572;2022-10-16T03:03:52;99652.09;;;11.64;100.00
7441;BME280;29616;51.950;8.572;2022-10-16T03:06:20;99648.88;;;11.69;100.00
7441;BME280;29616;51.950;8.572;2022-10-16T03:08:49;99654.34;;;11.69;100.00
7441;BME280;29616;51.950;8.572;2022-10-16T03:11:17;99656.94;;;11.78;100.00
7441;BME280;29616;51.950;8.572;2022-10-16T03:13:45;99665.50;;;11.75;100.00
7441;BME280;29616;51.950;8.572;2022-10-16T03:16:14;99660.69;;;11.69;100.00
7441;BME280;29616;51.950;8.572;2022-10-16T03:18:43;99658.78;;;11.62;100.00
7441;BME280;29616;51.950;8.572;2022-10-16T03:21:15;99673.97;;;11.48;100.00
7441;BME280;29616;51.950;8.572;2022-10-16T03:23:43;99661.84;;;11.50;100.00
7441;BME280;29616;51.950;8.572;2022-10-16T03:26:12;99664.06;;;11.47;100.00
7441;BME280;29616;51.950;8.572;2022-10-16T03:28:41;99662.50;;;11.44;100.00
7441;BME280;29616;51.950;8.572;2022-10-16T03:31:09;99658.22;;;11.42;100.00
7441;BME280;29616;51.950;8.572;2022-10-16T03:33:37;99670.91;;;11.43;100.00
7441;BME280;29616;51.950;8.572;2022-10-16T03:36:07;99657.75;;;11.38;100.00
7441;BME280;29616;51.950;8.572;2022-10-16T03:38:36;99657.88;;;11.29;100.00
7441;BME280;29616;51.950;8.572;2022-10-16T03:41:04;99661.13;;;11.24;100.00
7441;BME280;29616;51.950;8.572;2022-10-16T03:43:34;99663.00;;;11.24;100.00
7441;BME280;29616;51.950;8.572;2022-10-16T03:46:02;99670.16;;;11.17;100.00
7441;BME280;29616;51.950;8.572;2022-10-16T03:48:31;99664.50;;;11.10;100.00
7441;BME280;29616;51.950;8.572;2022-10-16T03:50:59;99662.59;;;11.03;100.00
7441;BME280;29616;51.950;8.572;2022-10-16T03:53:29;99674.72;;;11.00;100.00
7441;BME280;29616;51.950;8.572;2022-10-16T03:55:57;99671.44;;;10.96;100.00
7441;BME280;29616;51.950;8.572;2022-10-16T03:58:26;99667.72;;;10.98;100.00
7441;BME280;29616;51.950;8.572;2022-10-16T04:00:55;99669.47;;;11.07;100.00
7441;BME280;29616;51.950;8.572;2022-10-16T04:03:23;99668.41;;;11.08;100.00
7441;BME280;29616;51.950;8.572;2022-10-16T04:05:52;99667.09;;;11.12;100.00
7441;BME280;29616;51.950;8.572;2022-10-16T04:08:20;99664.13;;;11.05;100.00
7441;BME280;29616;51.950;8.572;2022-10-16T04:10:49;99662.31;;;11.22;100.00
7441;BME280;29616;51.950;8.572;2022-10-16T04:13:18;99661.66;;;11.28;100.00
7441;BME280;29616;51.950;8.572;2022-10-16T04:15:51;99661.34;;;11.39;100.00
7441;BME280;29616;51.950;8.572;2022-10-16T04:18:19;99672.25;;;11.47;100.00
7441;BME280;29616;51.950;8.572;2022-10-16T04:20:48;99668.50;;;11.48;100.00
7441;BME280;29616;51.950;8.572;2022-10-16T04:23:16;99672.47;;;11.53;100.00
7441;BME280;29616;51.950;8.572;2022-10-16T04:25:44;99674.34;;;11.61;100.00
7441;BME280;29616;51.950;8.572;2022-10-16T04:28:14;99660.69;;;11.69;100.00
7441;BME280;29616;51.950;8.572;2022-10-16T04:30:42;99670.97;;;11.75;100.00
7441;BME280;29616;51.950;8.572;2022-10-16T04:33:10;99676.25;;;11.85;100.00
7441;BME280;29616;51.950;8.572;2022-10-16T04:35:40;99686.34;;;11.92;100.00
7441;BME280;29616;51.950;8.572;2022-10-16T04:38:08;99690.81;;;11.93;100.00
7441;BME280;29616;51.950;8.572;2022-10-16T04:40:36;99690.81;;;12.01;100.00
7441;BME280;29616;51.950;8.572;2022-10-16T04:43:05;99694.75;;;12.07;100.00
7441;BME280;29616;51.950;8.572;2022-10-16T04:45:35;99683.78;;;12.07;100.00
7441;BME280;29616;51.950;8.572;2022-10-16T04:48:04;99681.72;;;12.09;100.00
7441;BME280;29616;51.950;8.572;2022-10-16T04:50:32;99686.53;;;12.07;100.00
7441;BME280;29616;51.950;8.572;2022-10-16T04:53:05;99699.88;;;12.10;100.00
7441;BME280;29616;51.950;8.572;2022-10-16T04:55:34;99696.28;;;12.09;100.00
7441;BME280;29616;51.950;8.572;2022-10-16T04:58:02;99705.38;;;12.10;100.00
7441;BME280;29616;51.950;8.572;2022-10-16T05:00:31;99708.97;;;12.19;100.00
7441;BME280;29616;51.950;8.572;2022-10-16T05:03:01;99707.75;;;12.21;100.00
7441;BME280;29616;51.950;8.572;2022-10-16T05:05:33;99701.41;;;12.29;100.00
7441;BME280;29616;51.950;8.572;2022-10-16T05:08:02;99695.06;;;12.28;100.00
7441;BME280;29616;51.950;8.572;2022-10-16T05:10:30;99719.06;;;12.34;100.00
7441;BME280;29616;51.950;8.572;2022-10-16T05:12:59;99718.84;;;12.36;100.00
7441;BME280;29616;51.950;8.572;2022-10-16T05:15:27;99723.31;;;12.37;100.00
7441;BME280;29616;51.950;8.572;2022-10-16T05:17:56;99713.91;;;12.39;100.00
7441;BME280;29616;51.950;8.572;2022-10-16T05:20:25;99717.84;;;12.37;100.00
7441;BME280;29616;51.950;8.572;2022-10-16T05:22:54;99710.63;;;12.36;100.00
7441;BME280;29616;51.950;8.572;2022-10-16T05:25:22;99714.75;;;12.40;100.00
7441;BME280;29616;51.950;8.572;2022-10-16T05:27:51;99730.69;;;12.36;100.00
7441;BME280;29616;51.950;8.572;2022-10-16T05:30:19;99708.25;;;12.16;100.00
7441;BME280;29616;51.950;8.572;2022-10-16T05:32:48;99730.16;;;12.16;100.00
7441;BME280;29616;51.950;8.572;2022-10-16T05:35:18;99719.22;;;12.16;100.00
7441;BME280;29616;51.950;8.572;2022-10-16T05:37:48;99723.34;;;12.12;100.00
7441;BME280;29616;51.950;8.572;2022-10-16T05:40:16;99733.09;;;11.99;100.00
7441;BME280;29616;51.950;8.572;2022-10-16T05:42:44;99730.16;;;11.92;100.00
7441;BME280;29616;51.950;8.572;2022-10-16T05:45:13;99733.28;;;11.81;100.00
7441;BME280;29616;51.950;8.572;2022-10-16T05:47:41;99730.53;;;11.73;100.00
7441;BME280;29616;51.950;8.572;2022-10-16T05:50:09;99739.69;;;11.64;100.00
7441;BME280;29616;51.950;8.572;2022-10-16T05:52:37;99756.63;;;11.60;100.00
7441;BME280;29616;51.950;8.572;2022-10-16T05:55:08;99754.88;;;11.50;100.00
7441;BME280;29616;51.950;8.572;2022-10-16T05:57:36;99769.63;;;11.57;100.00
7441;BME280;29616;51.950;8.572;2022-10-16T06:00:06;99764.63;;;11.53;100.00
7441;BME280;29616;51.950;8.572;2022-10-16T06:02:41;99771.84;;;11.54;100.00
7441;BME280;29616;51.950;8.572;2022-10-16T06:05:09;99765.16;;;11.48;100.00
7441;BME280;29616;51.950;8.572;2022-10-16T06:07:37;99767.22;;;11.54;100.00
7441;BME280;29616;51.950;8.572;2022-10-16T06:10:08;99775.78;;;11.60;100.00
7441;BME280;29616;51.950;8.572;2022-10-16T06:12:36;99777.31;;;11.54;100.00
7441;BME280;29616;51.950;8.572;2022-10-16T06:15:06;99780.41;;;11.59;100.00
7441;BME280;29616;51.950;8.572;2022-10-16T06:17:34;99783.13;;;11.59;100.00
7441;BME280;29616;51.950;8.572;2022-10-16T06:20:03;99781.75;;;11.63;100.00
7441;BME280;29616;51.950;8.572;2022-10-16T06:22:31;99794.50;;;11.80;100.00
7441;BME280;29616;51.950;8.572;2022-10-16T06:25:00;99798.63;;;11.92;100.00
7441;BME280;29616;51.950;8.572;2022-10-16T06:27:29;99795.91;;;12.00;100.00
7441;BME280;29616;51.950;8.572;2022-10-16T06:29:58;99792.50;;;12.14;100.00
7441;BME280;29616;51.950;8.572;2022-10-16T06:32:27;99788.56;;;12.25;100.00
7441;BME280;29616;51.950;8.572;2022-10-16T06:34:55;99779.81;;;12.38;100.00
7441;BME280;29616;51.950;8.572;2022-10-16T06:37:23;99789.94;;;12.53;100.00
7441;BME280;29616;51.950;8.572;2022-10-16T06:39:53;99793.50;;;12.62;100.00
7441;BME280;29616;51.950;8.572;2022-10-16T06:42:21;99804.66;;;12.68;100.00
7441;BME280;29616;51.950;8.572;2022-10-16T06:44:52;99813.34;;;12.80;100.00
7441;BME280;29616;51.950;8.572;2022-10-16T06:47:20;99816.63;;;12.84;100.00
7441;BME280;29616;51.950;8.572;2022-10-16T06:49:48;99821.94;;;12.93;100.00
7441;BME280;29616;51.950;8.572;2022-10-16T06:52:20;99828.06;;;13.03;100.00
7441;BME280;29616;51.950;8.572;2022-10-16T06:54:50;99814.69;;;13.00;100.00
7441;BME280;29616;51.950;8.572;2022-10-16T06:57:18;99830.78;;;13.27;100.00
7441;BME280;29616;51.950;8.572;2022-10-16T06:59:46;99833.00;;;13.32;100.00
7441;BME280;29616;51.950;8.572;2022-10-16T07:02:22;99848.63;;;13.23;100.00
7441;BME280;29616;51.950;8.572;2022-10-16T07:04:51;99854.09;;;13.31;100.00
7441;BME280;29616;51.950;8.572;2022-10-16T07:07:20;99843.06;;;13.48;100.00
7441;BME280;29616;51.950;8.572;2022-10-16T07:09:48;99855.28;;;13.76;100.00
7441;BME280;29616;51.950;8.572;2022-10-16T07:12:17;99841.44;;;13.92;100.00
7441;BME280;29616;51.950;8.572;2022-10-16T07:14:45;99845.59;;;13.88;100.00
7441;BME280;29616;51.950;8.572;2022-10-16T07:17:13;99847.28;;;13.97;100.00
7441;BME280;29616;51.950;8.572;2022-10-16T07:19:44;99850.56;;;14.23;100.00
7441;BME280;29616;51.950;8.572;2022-10-16T07:22:12;99860.94;;;14.58;100.00
7441;BME280;29616;51.950;8.572;2022-10-16T07:24:40;99860.94;;;14.81;100.00
7441;BME280;29616;51.950;8.572;2022-10-16T07:27:14;99877.88;;;15.07;100.00
7441;BME280;29616;51.950;8.572;2022-10-16T07:29:43;99878.28;;;15.34;100.00
7441;BME280;29616;51.950;8.572;2022-10-16T07:32:11;99881.03;;;15.34;100.00
7441;BME280;29616;51.950;8.572;2022-10-16T07:34:40;99882.66;;;15.28;100.00
7441;BME280;29616;51.950;8.572;2022-10-16T07:37:10;99891.06;;;15.12;100.00
7441;BME280;29616;51.950;8.572;2022-10-16T07:39:38;99891.31;;;15.40;100.00
7441;BME280;29616;51.950;8.572;2022-10-16T07:42:06;99908.91;;;15.68;100.00
7441;BME280;29616;51.950;8.572;2022-10-16T07:44:35;99912.06;;;15.50;100.00
7441;BME280;29616;51.950;8.572;2022-10-16T07:47:03;99906.81;;;15.41;100.00
7441;BME280;29616;51.950;8.572;2022-10-16T07:49:31;99922.09;;;15.43;100.00
7441;BME280;29616;51.950;8.572;2022-10-16T07:51:59;99906.84;;;15.70;100.00
7441;BME280;29616;51.950;8.572;2022-10-16T07:54:29;99921.19;;;15.51;100.00
7441;BME280;29616;51.950;8.572;2022-10-16T07:56:57;99922.06;;;16.31;100.00
7441;BME280;29616;51.950;8.572;2022-10-16T07:59:26;99924.31;;;15.62;100.00
7441;BME280;29616;51.950;8.572;2022-10-16T08:01:54;99918.94;;;16.19;100.00
7441;BME280;29616;51.950;8.572;2022-10-16T08:04:23;99927.53;;;15.95;100.00
7441;BME280;29616;51.950;8.572;2022-10-16T08:06:52;99930.09;;;15.67;100.00
7441;BME280;29616;51.950;8.572;2022-10-16T08:09:21;99919.50;;;15.42;100.00
7441;BME280;29616;51.950;8.572;2022-10-16T08:11:50;99923.91;;;15.95;100.00
7441;BME280;29616;51.950;8.572;2022-10-16T08:14:19;99918.81;;;17.27;100.00
7441;BME280;29616;51.950;8.572;2022-10-16T08:16:47;99925.63;;;17.86;100.00
7441;BME280;29616;51.950;8.572;2022-10-16T08:19:16;99918.81;;;19.03;100.00
7441;BME280;29616;51.950;8.572;2022-10-16T08:21:47;99926.50;;;19.27;100.00
7441;BME280;29616;51.950;8.572;2022-10-16T08:24:15;99920.34;;;19.58;100.00
7441;BME280;29616;51.950;8.572;2022-10-16T08:26:44;99930.34;;;19.66;100.00
7441;BME280;29616;51.950;8.572;2022-10-16T08:29:14;99929.91;;;19.82;100.00
7441;BME280;29616;51.950;8.572;2022-10-16T08:31:43;99929.75;;;20.34;100.00
7441;BME280;29616;51.950;8.572;2022-10-16T08:34:11;99946.59;;;19.43;100.00
7441;BME280;29616;51.950;8.572;2022-10-16T08:36:39;99947.75;;;20.06;100.00
7441;BME280;29616;51.950;8.572;2022-10-16T08:39:08;99951.97;;;20.15;100.00
7441;BME280;29616;51.950;8.572;2022-10-16T08:42:11;99950.50;;;20.19;100.00
7441;BME280;29616;51.950;8.572;2022-10-16T08:45:27;99960.03;;;20.42;100.00
7441;BME280;29616;51.950;8.572;2022-10-16T08:48:12;99957.81;;;20.58;100.00
7441;BME280;29616;51.950;8.572;2022-10-16T08:50:44;99970.25;;;20.48;100.00
7441;BME280;29616;51.950;8.572;2022-10-16T08:53:19;99968.84;;;20.71;100.00
7441;BME280;29616;51.950;8.572;2022-10-16T08:55:51;99986.16;;;20.02;100.00
7441;BME280;29616;51.950;8.572;2022-10-16T08:58:22;99980.88;;;19.81;100.00
7441;BME280;29616;51.950;8.572;2022-10-16T09:00:55;99985.75;;;20.76;100.00
7441;BME280;29616;51.950;8.572;2022-10-16T09:03:45;99984.53;;;20.59;100.00
7441;BME280;29616;51.950;8.572;2022-10-16T09:06:31;99994.00;;;20.31;100.00
7441;BME280;29616;51.950;8.572;2022-10-16T09:09:44;100004.00;;;20.90;100.00
7441;BME280;29616;51.950;8.572;2022-10-16T09:12:20;100000.88;;;19.96;100.00
7441;BME280;29616;51.950;8.572;2022-10-16T09:14:59;99995.34;;;20.09;100.00
7441;BME280;29616;51.950;8.572;2022-10-16T09:17:41;100000.69;;;19.78;100.00
7441;BME280;29616;51.950;8.572;2022-10-16T09:20:25;100005.81;;;19.81;100.00
7441;BME280;29616;51.950;8.572;2022-10-16T09:23:13;99995.50;;;20.34;100.00
7441;BME280;29616;51.950;8.572;2022-10-16T09:25:46;100015.16;;;20.32;100.00
7441;BME280;29616;51.950;8.572;2022-10-16T09:28:16;100007.22;;;20.36;100.00
7441;BME280;29616;51.950;8.572;2022-10-16T09:30:46;100005.53;;;20.28;100.00
7441;BME280;29616;51.950;8.572;2022-10-16T09:33:21;100006.22;;;20.24;100.00
7441;BME280;29616;51.950;8.572;2022-10-16T09:35:52;100015.06;;;20.52;100.00
7441;BME280;29616;51.950;8.572;2022-10-16T09:38:25;100015.06;;;20.65;100.00
7441;BME280;29616;51.950;8.572;2022-10-16T09:40:55;100010.88;;;20.23;100.00
7441;BME280;29616;51.950;8.572;2022-10-16T09:43:34;100010.75;;;20.63;100.00
7441;BME280;29616;51.950;8.572;2022-10-16T09:46:05;100020.13;;;20.68;100.00
7441;BME280;29616;51.950;8.572;2022-10-16T09:48:38;100014.28;;;20.38;100.00
7441;BME280;29616;51.950;8.572;2022-10-16T09:51:20;100016.22;;;20.18;100.00
7441;BME280;29616;51.950;8.572;2022-10-16T09:53:56;100020.75;;;19.41;100.00
7441;BME280;29616;51.950;8.572;2022-10-16T09:56:27;100014.28;;;19.27;100.00
7441;BME280;29616;51.950;8.572;2022-10-16T09:58:58;100021.63;;;19.61;100.00
7441;BME280;29616;51.950;8.572;2022-10-16T10:01:35;100020.50;;;20.85;100.00
7441;BME280;29616;51.950;8.572;2022-10-16T10:04:07;100018.91;;;21.40;100.00
7441;BME280;29616;51.950;8.572;2022-10-16T10:06:37;100032.38;;;21.05;100.00
7441;BME280;29616;51.950;8.572;2022-10-16T10:09:19;100035.44;;;20.13;100.00
7441;BME280;29616;51.950;8.572;2022-10-16T10:11:52;100032.88;;;20.05;100.00
7441;BME280;29616;51.950;8.572;2022-10-16T10:14:25;100022.22;;;20.86;100.00
7441;BME280;29616;51.950;8.572;2022-10-16T10:17:12;100037.81;;;20.80;100.00
7441;BME280;29616;51.950;8.572;2022-10-16T10:19:48;100046.13;;;20.03;100.00
7441;BME280;29616;51.950;8.572;2022-10-16T10:22:30;100039.06;;;20.14;100.00
7441;BME280;29616;51.950;8.572;2022-10-16T10:25:12;100046.25;;;19.10;100.00
7441;BME280;29616;51.950;8.572;2022-10-16T10:31:03;100055.22;;;19.18;100.00
7441;BME280;29616;51.950;8.572;2022-10-16T10:33:44;100053.41;;;19.58;100.00
7441;BME280;29616;51.950;8.572;2022-10-16T10:36:27;100050.59;;;19.65;100.00
7441;BME280;29616;51.950;8.572;2022-10-16T10:38:59;100053.97;;;20.39;100.00
7441;BME280;29616;51.950;8.572;2022-10-16T10:42:09;100049.31;;;20.07;100.00
7441;BME280;29616;51.950;8.572;2022-10-16T10:45:11;100057.38;;;21.43;100.00
7441;BME280;29616;51.950;8.572;2022-10-16T10:47:53;100058.50;;;21.98;100.00
7441;BME280;29616;51.950;8.572;2022-10-16T10:50:30;100066.66;;;21.61;100.00
7441;BME280;29616;51.950;8.572;2022-10-16T10:53:11;100060.06;;;21.56;100.00
7441;BME280;29616;51.950;8.572;2022-10-16T10:55:51;100061.09;;;21.30;100.00
7441;BME280;29616;51.950;8.572;2022-10-16T10:59:07;100071.97;;;19.90;100.00
7441;BME280;29616;51.950;8.572;2022-10-16T11:01:46;100076.22;;;20.06;100.00
7441;BME280;29616;51.950;8.572;2022-10-16T11:04:57;100066.63;;;18.89;100.00
7441;BME280;29616;51.950;8.572;2022-10-16T11:07:31;100069.38;;;19.63;100.00
7441;BME280;29616;51.950;8.572;2022-10-16T11:10:12;100070.47;;;20.01;100.00
7441;BME280;29616;51.950;8.572;2022-10-16T11:12:45;100066.25;;;19.05;100.00
7441;BME280;29616;51.950;8.572;2022-10-16T11:15:19;100075.63;;;19.04;100.00
7441;BME280;29616;51.950;8.572;2022-10-16T11:17:54;100063.91;;;19.09;100.00
7441;BME280;29616;51.950;8.572;2022-10-16T11:20:27;100071.94;;;19.77;100.00
7441;BME280;29616;51.950;8.572;2022-10-16T11:23:00;100075.78;;;20.35;100.00
7441;BME280;29616;51.950;8.572;2022-10-16T11:25:33;100067.09;;;20.83;100.00
7441;BME280;29616;51.950;8.572;2022-10-16T11:28:07;100080.22;;;20.23;100.00
7441;BME280;29616;51.950;8.572;2022-10-16T11:30:43;100082.16;;;21.13;100.00
7441;BME280;29616;51.950;8.572;2022-10-16T11:33:30;100068.28;;;21.13;100.00
7441;BME280;29616;51.950;8.572;2022-10-16T11:36:08;100077.78;;;21.30;100.00
7441;BME280;29616;51.950;8.572;2022-10-16T11:38:45;100080.59;;;21.24;100.00
7441;BME280;29616;51.950;8.572;2022-10-16T11:41:25;100079.88;;;20.84;100.00
7441;BME280;29616;51.950;8.572;2022-10-16T11:47:08;100093.19;;;21.26;100.00
7441;BME280;29616;51.950;8.572;2022-10-16T11:50:04;100080.34;;;22.19;100.00
7441;BME280;29616;51.950;8.572;2022-10-16T11:52:44;100078.66;;;22.54;100.00
7441;BME280;29616;51.950;8.572;2022-10-16T11:55:20;100078.88;;;22.77;100.00
7441;BME280;29616;51.950;8.572;2022-10-16T11:57:54;100072.47;;;22.77;100.00
7441;BME280;29616;51.950;8.572;2022-10-16T12:00:30;100074.25;;;22.71;100.00
7441;BME280;29616;51.950;8.572;2022-10-16T12:03:13;100076.88;;;23.32;100.00
7441;BME280;29616;51.950;8.572;2022-10-16T12:05:58;100082.88;;;21.64;100.00
7441;BME280;29616;51.950;8.572;2022-10-16T12:08:34;100077.34;;;21.33;100.00
7441;BME280;29616;51.950;8.572;2022-10-16T12:11:08;100087.69;;;20.23;100.00
7441;BME280;29616;51.950;8.572;2022-10-16T12:13:41;100090.00;;;21.60;100.00
7441;BME280;29616;51.950;8.572;2022-10-16T12:16:24;100094.69;;;21.91;100.00
7441;BME280;29616;51.950;8.572;2022-10-16T12:19:11;100092.94;;;21.34;100.00
7441;BME280;29616;51.950;8.572;2022-10-16T12:21:40;100096.44;;;21.54;100.00
7441;BME280;29616;51.950;8.572;2022-10-16T12:24:26;100106.03;;;22.39;100.00
7441;BME280;29616;51.950;8.572;2022-10-16T12:26:55;100111.56;;;21.65;100.00
7441;BME280;29616;51.950;8.572;2022-10-16T12:29:33;100114.41;;;20.24;100.00
7441;BME280;29616;51.950;8.572;2022-10-16T12:32:04;100104.78;;;19.74;100.00
7441;BME280;29616;51.950;8.572;2022-10-16T12:34:39;100116.91;;;19.60;100.00
7441;BME280;29616;51.950;8.572;2022-10-16T12:37:14;100119.69;;;19.60;100.00
7441;BME280;29616;51.950;8.572;2022-10-16T12:39:48;100120.53;;;19.54;100.00
7441;BME280;29616;51.950;8.572;2022-10-16T12:42:30;100126.78;;;19.21;100.00
7441;BME280;29616;51.950;8.572;2022-10-16T12:45:12;100114.44;;;21.45;100.00
7441;BME280;29616;51.950;8.572;2022-10-16T12:47:51;100115.59;;;20.74;100.00
7441;BME280;29616;51.950;8.572;2022-10-16T12:50:31;100124.47;;;21.53;100.00
7441;BME280;29616;51.950;8.572;2022-10-16T12:53:02;100124.75;;;23.11;100.00
7441;BME280;29616;51.950;8.572;2022-10-16T12:55:35;100125.47;;;22.88;100.00
7441;BME280;29616;51.950;8.572;2022-10-16T12:58:25;100119.22;;;21.32;100.00
7441;BME280;29616;51.950;8.572;2022-10-16T13:01:09;100127.75;;;23.46;100.00
7441;BME280;29616;51.950;8.572;2022-10-16T13:04:22;100132.75;;;23.26;100.00
7441;BME280;29616;51.950;8.572;2022-10-16T13:07:15;100137.34;;;23.80;100.00
7441;BME280;29616;51.950;8.572;2022-10-16T13:09:58;100142.88;;;22.16;100.00
7441;BME280;29616;51.950;8.572;2022-10-16T13:12:55;100148.78;;;20.29;100.00
7441;BME280;29616;51.950;8.572;2022-10-16T13:15:40;100153.69;;;20.01;100.00
7441;BME280;29616;51.950;8.572;2022-10-16T13:18:20;100140.69;;;21.94;100.00
7441;BME280;29616;51.950;8.572;2022-10-16T13:21:07;100151.72;;;21.75;100.00
7441;BME280;29616;51.950;8.572;2022-10-16T13:23:47;100156.25;;;22.01;100.00
7441;BME280;29616;51.950;8.572;2022-10-16T13:26:29;100158.81;;;22.52;100.00
7441;BME280;29616;51.950;8.572;2022-10-16T13:28:59;100146.91;;;21.58;100.00
7441;BME280;29616;51.950;8.572;2022-10-16T13:31:29;100157.75;;;20.31;100.00
7441;BME280;29616;51.950;8.572;2022-10-16T13:34:01;100155.34;;;19.76;100.00
7441;BME280;29616;51.950;8.572;2022-10-16T13:36:34;100140.69;;;19.28;100.00